Time;durP1;ratioP1;P1;durP2;ratioP2;P2;SDS_P1;SDS_P2;PMS_P1;PMS_P2;Temp;Humidity;BMP_temperature;BMP_pressure;BME280_temperature;BME280_humidity;BME280_pressure;Samples;Min_cycle;Max_cycle;Signal;HPM_P1;HPM_P2
2021/12/10 00:00:56;;;;;;;0.85;0.40;;;8.80;82.90;;;;;;4972455;28;20036;-94
2021/12/10 00:03:46;;;;;;;2.88;0.75;;;9.20;83.30;;;;;;5004733;28;20056;-94
2021/12/10 00:06:26;;;;;;;1.52;0.45;;;8.90;83.00;;;;;;4968896;28;20080;-94
2021/12/10 00:08:59;;;;;;;2.10;0.82;;;8.90;83.00;;;;;;4992949;28;20498;-93
2021/12/10 00:11:48;;;;;;;2.75;0.68;;;8.90;83.00;;;;;;4977039;28;20041;-94
2021/12/10 00:14:14;;;;;;;0.60;0.40;;;9.10;83.20;;;;;;4986602;28;20103;-94
2021/12/10 00:16:41;;;;;;;0.38;0.30;;;8.80;83.10;;;;;;4978226;28;20125;-92
2021/12/10 00:21:57;;;;;;;2.08;1.00;;;9.30;83.40;;;;;;4997656;28;20349;-92
2021/12/10 00:24:27;;;;;;;3.05;0.65;;;9.10;83.30;;;;;;4983429;28;20481;-93
2021/12/10 00:26:54;;;;;;;0.40;0.20;;;9.40;83.50;;;;;;4986407;28;20507;-94
2021/12/10 00:29:20;;;;;;;1.67;0.63;;;8.90;83.10;;;;;;4981288;28;20034;-94
2021/12/10 00:31:54;;;;;;;3.13;0.85;;;9.10;83.20;;;;;;4970153;28;20034;-94
2021/12/10 00:34:42;;;;;;;0.50;0.30;;;9.20;83.40;;;;;;4962853;28;20034;-94
2021/12/10 00:37:12;;;;;;;0.43;0.20;;;8.90;83.20;;;;;;4988013;28;20124;-94
2021/12/10 00:39:51;;;;;;;1.13;0.55;;;8.90;83.10;;;;;;4973049;28;20041;-92
2021/12/10 00:42:22;;;;;;;1.50;0.70;;;8.90;83.10;;;;;;4968370;28;20029;-94
2021/12/10 00:44:49;;;;;;;1.92;0.70;;;9.40;83.40;;;;;;4984494;28;20499;-92
2021/12/10 00:47:15;;;;;;;0.90;0.30;;;9.30;83.50;;;;;;4980859;28;20029;-93
2021/12/10 00:49:40;;;;;;;1.77;0.73;;;8.90;83.30;;;;;;4985204;28;20105;-94
2021/12/10 00:52:11;;;;;;;1.38;0.50;;;8.90;83.40;;;;;;4972610;28;20029;-92
2021/12/10 00:54:37;;;;;;;0.88;0.40;;;9.10;83.50;;;;;;4982294;28;20033;-92
2021/12/10 00:57:05;;;;;;;1.15;0.55;;;8.90;83.40;;;;;;4971100;28;20033;-92
2021/12/10 00:59:31;;;;;;;1.88;0.63;;;8.90;83.40;;;;;;4982011;28;20411;-94
2021/12/10 01:01:57;;;;;;;0.90;0.50;;;8.90;83.40;;;;;;4984034;28;20028;-94
2021/12/10 01:04:30;;;;;;;1.08;0.60;;;9.20;83.60;;;;;;4964238;28;20037;-94
2021/12/10 01:07:01;;;;;;;0.75;0.55;;;9.00;83.40;;;;;;4988874;28;20034;-94
2021/12/10 01:09:32;;;;;;;0.88;0.47;;;9.00;83.30;;;;;;4982299;28;20034;-94
2021/12/10 01:12:05;;;;;;;0.80;0.20;;;9.10;83.40;;;;;;4966950;28;20026;-94
2021/12/10 01:15:32;;;;;;;1.00;0.55;;;9.00;83.40;;;;;;4984372;28;20038;-94
2021/12/10 01:23:50;;;;;;;0.35;0.25;;;9.10;83.50;;;;;;4987922;28;20076;-94
2021/12/10 01:29:16;;;;;;;0.30;0.30;;;9.00;83.70;;;;;;4977017;28;20042;-94
2021/12/10 01:31:43;;;;;;;0.40;0.22;;;9.00;83.60;;;;;;4973455;28;20082;-94
2021/12/10 01:34:10;;;;;;;0.70;0.30;;;9.00;83.60;;;;;;4980788;28;20457;-93
2021/12/10 01:36:36;;;;;;;0.40;0.28;;;9.60;83.90;;;;;;4987562;28;20065;-94
2021/12/10 01:39:08;;;;;;;0.20;0.20;;;9.00;83.70;;;;;;4971001;28;20033;-94
2021/12/10 01:41:40;;;;;;;1.05;0.50;;;9.30;84.00;;;;;;4970272;28;20046;-93
2021/12/10 01:44:15;;;;;;;0.52;0.43;;;9.00;83.90;;;;;;4979264;28;20068;-92
2021/12/10 01:46:48;;;;;;;2.03;0.75;;;9.10;83.90;;;;;;4983693;28;20042;-91
2021/12/10 01:49:14;;;;;;;0.75;0.30;;;9.10;83.90;;;;;;4967574;28;20026;-94
2021/12/10 01:51:43;;;;;;;0.55;0.20;;;9.10;83.90;;;;;;4985818;28;20535;-94
2021/12/10 01:54:27;;;;;;;3.28;1.52;;;9.10;83.90;;;;;;4996005;28;20018;-93
2021/12/10 01:56:57;;;;;;;2.42;0.80;;;9.20;83.90;;;;;;4983866;28;20030;-94
2021/12/10 01:59:26;;;;;;;2.08;0.90;;;9.20;83.90;;;;;;4990734;28;20025;-94
2021/12/10 02:01:57;;;;;;;1.88;0.93;;;9.20;83.90;;;;;;4981363;28;20066;-94
2021/12/10 02:04:27;;;;;;;2.65;1.05;;;9.20;83.90;;;;;;4969732;28;20495;-94
2021/12/10 02:06:54;;;;;;;1.65;1.00;;;9.30;83.90;;;;;;4984510;28;20050;-93
2021/12/10 02:09:22;;;;;;;1.20;0.80;;;9.30;83.90;;;;;;4991749;28;20048;-92
2021/12/10 02:11:48;;;;;;;1.75;0.82;;;9.30;83.90;;;;;;4991380;28;20495;-94
2021/12/10 02:14:14;;;;;;;1.88;1.00;;;9.40;84.00;;;;;;4988264;28;20069;-94
2021/12/10 02:16:43;;;;;;;3.95;1.23;;;9.40;84.10;;;;;;4970743;28;20046;-93
2021/12/10 02:19:11;;;;;;;3.05;1.38;;;9.50;84.10;;;;;;4992104;28;20022;-94
2021/12/10 02:21:39;;;;;;;3.63;1.35;;;9.50;84.10;;;;;;4981683;28;20073;-93
2021/12/10 02:24:08;;;;;;;2.45;1.00;;;9.50;84.10;;;;;;4987774;28;20029;-93
2021/12/10 02:26:41;;;;;;;4.93;1.90;;;9.50;84.00;;;;;;4975362;28;20169;-94
2021/12/10 02:29:08;;;;;;;6.53;1.65;;;9.50;84.00;;;;;;4982739;28;20371;-93
2021/12/10 02:31:34;;;;;;;2.92;0.77;;;9.50;84.30;;;;;;4987312;28;20555;-94
2021/12/10 02:34:01;;;;;;;3.85;1.15;;;9.60;84.20;;;;;;4986843;28;20249;-94
2021/12/10 02:36:28;;;;;;;1.77;0.73;;;10.00;84.40;;;;;;4993170;28;20033;-93
2021/12/10 02:38:56;;;;;;;7.32;1.27;;;9.80;84.30;;;;;;4985560;28;20705;-92
2021/12/10 02:41:30;;;;;;;3.75;1.73;;;9.60;84.30;;;;;;4984813;28;20034;-94
2021/12/10 02:43:58;;;;;;;7.65;1.20;;;9.60;84.40;;;;;;4997886;28;20109;-92
2021/12/10 02:46:24;;;;;;;7.07;1.27;;;9.80;84.50;;;;;;4963609;28;20514;-94
2021/12/10 02:48:50;;;;;;;9.25;1.63;;;9.70;84.50;;;;;;4967464;28;20037;-94
2021/12/10 02:51:16;;;;;;;7.45;0.88;;;9.70;84.50;;;;;;4985683;28;20422;-94
2021/12/10 02:53:45;;;;;;;3.60;1.27;;;9.70;84.60;;;;;;4968551;28;20703;-94
2021/12/10 02:56:18;;;;;;;7.55;1.23;;;9.80;85.20;;;;;;4965832;28;20042;-93
2021/12/10 02:58:48;;;;;;;5.25;1.30;;;9.80;84.70;;;;;;4979418;28;20080;-94
2021/12/10 03:01:37;;;;;;;2.90;1.02;;;9.80;84.70;;;;;;4958028;28;20037;-92
2021/12/10 03:04:07;;;;;;;2.42;1.00;;;9.90;84.90;;;;;;4989333;28;20048;-94
2021/12/10 03:06:35;;;;;;;4.63;1.00;;;9.90;84.90;;;;;;4978126;28;20049;-92
2021/12/10 03:09:03;;;;;;;3.00;0.93;;;10.00;85.00;;;;;;4981006;28;20042;-94
2021/12/10 03:11:37;;;;;;;1.80;0.85;;;10.00;85.10;;;;;;4979723;28;20547;-94
2021/12/10 03:14:10;;;;;;;3.08;1.20;;;10.40;85.50;;;;;;4982604;28;20076;-94
2021/12/10 03:16:38;;;;;;;5.18;1.35;;;10.00;85.40;;;;;;4994118;28;20053;-94
2021/12/10 03:19:08;;;;;;;10.05;1.50;;;10.00;85.60;;;;;;4981211;28;20426;-94
2021/12/10 03:21:42;;;;;;;8.60;1.98;;;10.10;85.70;;;;;;4988402;28;20112;-94
2021/12/10 03:24:08;;;;;;;7.70;2.38;;;10.00;86.00;;;;;;4972611;28;20034;-91
2021/12/10 03:26:34;;;;;;;11.13;1.88;;;10.00;86.20;;;;;;4987404;28;20053;-94
2021/12/10 03:28:59;;;;;;;5.38;1.27;;;10.10;86.70;;;;;;4981358;28;20037;-94
2021/12/10 03:31:27;;;;;;;8.20;1.20;;;10.60;87.70;;;;;;4995955;28;20050;-93
2021/12/10 03:33:55;;;;;;;9.75;1.88;;;10.50;87.00;;;;;;4978633;28;20026;-94
2021/12/10 03:36:22;;;;;;;9.68;1.67;;;10.10;86.80;;;;;;4980803;28;20097;-94
2021/12/10 03:38:48;;;;;;;7.38;1.73;;;10.20;86.90;;;;;;4967444;28;20087;-94
2021/12/10 03:41:15;;;;;;;10.93;2.47;;;10.20;86.90;;;;;;4979897;28;20035;-92
2021/12/10 03:43:43;;;;;;;16.80;2.70;;;10.20;86.90;;;;;;4953912;28;20048;-93
2021/12/10 03:46:09;;;;;;;9.52;1.92;;;10.20;87.50;;;;;;4961213;28;20310;-93
2021/12/10 03:48:42;;;;;;;21.05;2.92;;;10.20;87.00;;;;;;4982757;28;20053;-92
2021/12/10 03:51:13;;;;;;;10.52;2.17;;;10.70;87.30;;;;;;4981104;28;20033;-93
2021/12/10 03:53:40;;;;;;;12.32;2.50;;;10.20;87.30;;;;;;4986139;28;20068;-94
2021/12/10 03:56:14;;;;;;;9.93;2.40;;;10.20;87.40;;;;;;4969380;28;20037;-93
2021/12/10 03:58:42;;;;;;;11.52;2.33;;;10.20;87.40;;;;;;4995819;28;20038;-94
2021/12/10 04:01:10;;;;;;;11.73;2.10;;;10.70;87.60;;;;;;4981616;28;20116;-94
2021/12/10 04:03:36;;;;;;;11.27;2.10;;;10.20;87.30;;;;;;4984623;28;20034;-93
2021/12/10 04:06:02;;;;;;;12.00;2.20;;;10.20;87.30;;;;;;4979341;28;20454;-94
2021/12/10 04:08:28;;;;;;;12.65;2.13;;;10.20;87.10;;;;;;4971169;28;20120;-94
2021/12/10 04:10:55;;;;;;;5.72;1.27;;;10.20;87.00;;;;;;4974662;28;20091;-95
2021/12/10 04:13:22;;;;;;;13.73;2.40;;;10.50;87.00;;;;;;4993077;28;20553;-94
2021/12/10 04:15:48;;;;;;;8.63;1.58;;;10.30;86.70;;;;;;4988812;28;20052;-92
2021/12/10 04:18:14;;;;;;;8.38;2.03;;;10.40;86.50;;;;;;4960465;28;20124;-93
2021/12/10 04:20:41;;;;;;;8.52;1.75;;;10.70;86.60;;;;;;4986186;28;20613;-93
2021/12/10 04:23:11;;;;;;;11.30;1.60;;;10.20;86.00;;;;;;4982419;28;20135;-94
2021/12/10 04:25:38;;;;;;;6.05;1.42;;;10.30;85.90;;;;;;4975348;28;20106;-93
2021/12/10 04:28:07;;;;;;;8.93;1.60;;;10.30;85.70;;;;;;4978295;28;20065;-93
2021/12/10 04:30:39;;;;;;;8.77;2.28;;;10.20;85.00;;;;;;4963030;28;20026;-92
2021/12/10 04:33:06;;;;;;;8.25;2.20;;;10.20;84.90;;;;;;4983962;28;20120;-92
2021/12/10 04:35:33;;;;;;;11.27;1.70;;;10.20;84.80;;;;;;4963716;28;20060;-92
2021/12/10 04:37:59;;;;;;;10.60;2.70;;;10.40;84.80;;;;;;4982527;28;20041;-93
2021/12/10 04:40:25;;;;;;;11.63;2.08;;;10.20;84.50;;;;;;4992994;28;20095;-93
2021/12/10 04:42:51;;;;;;;10.90;1.90;;;10.50;84.60;;;;;;4968710;28;20457;-93
2021/12/10 04:45:18;;;;;;;20.02;5.18;;;10.20;84.30;;;;;;4982785;28;20044;-91
2021/12/10 04:47:46;;;;;;;10.27;2.60;;;10.20;84.10;;;;;;4967577;28;20052;-93
2021/12/10 04:50:13;;;;;;;13.82;3.00;;;10.20;84.00;;;;;;4985856;28;20038;-93
2021/12/10 04:52:39;;;;;;;11.35;2.40;;;10.20;83.80;;;;;;4978027;28;20030;-94
2021/12/10 04:55:08;;;;;;;12.45;4.07;;;10.70;84.10;;;;;;4982506;28;20492;-91
2021/12/10 04:57:35;;;;;;;8.05;1.92;;;10.20;83.60;;;;;;4983119;28;20035;-93
2021/12/10 05:00:01;;;;;;;13.65;2.83;;;10.20;83.60;;;;;;4969285;28;20068;-93
2021/12/10 05:02:28;;;;;;;9.10;2.38;;;10.20;83.40;;;;;;4988115;28;20137;-93
2021/12/10 05:04:57;;;;;;;12.50;3.05;;;10.20;83.30;;;;;;4985138;28;20049;-93
2021/12/10 05:07:24;;;;;;;15.02;2.08;;;10.20;83.20;;;;;;4981381;28;20037;-92
2021/12/10 05:09:50;;;;;;;17.27;2.95;;;10.30;83.10;;;;;;4991223;28;20034;-93
2021/12/10 05:12:16;;;;;;;7.57;2.72;;;10.20;83.00;;;;;;4982424;28;20037;-93
2021/12/10 05:14:42;;;;;;;6.57;1.60;;;10.20;83.00;;;;;;4961629;28;20038;-93
2021/12/10 05:17:10;;;;;;;11.10;2.55;;;10.60;83.30;;;;;;4981122;28;21061;-94
2021/12/10 05:19:38;;;;;;;5.40;1.85;;;10.20;82.80;;;;;;4969122;28;20510;-93
2021/12/10 05:22:08;;;;;;;6.88;1.55;;;10.60;82.70;;;;;;4963772;28;20033;-91
2021/12/10 05:24:37;;;;;;;5.53;1.00;;;10.10;82.30;;;;;;4982506;28;20046;-93
2021/12/10 05:27:04;;;;;;;9.02;2.13;;;10.10;82.10;;;;;;4977629;28;20035;-92
2021/12/10 05:29:30;;;;;;;4.38;1.10;;;10.20;82.00;;;;;;4989212;28;20038;-93
2021/12/10 05:31:58;;;;;;;4.65;1.25;;;10.60;82.10;;;;;;4971007;28;20091;-94
2021/12/10 05:34:25;;;;;;;6.10;1.23;;;10.10;81.60;;;;;;4972275;28;20023;-94
2021/12/10 05:36:51;;;;;;;6.45;1.65;;;10.30;81.50;;;;;;4965013;28;20077;-91
2021/12/10 05:39:21;;;;;;;7.78;1.88;;;10.10;81.50;;;;;;4969793;28;20500;-91
2021/12/10 05:41:47;;;;;;;3.97;0.95;;;10.10;81.40;;;;;;4966748;28;20534;-94
2021/12/10 05:44:13;;;;;;;8.55;1.17;;;10.10;81.30;;;;;;4963838;28;20118;-93
2021/12/10 05:46:39;;;;;;;10.13;1.70;;;10.60;81.50;;;;;;4985446;28;20037;-93
2021/12/10 05:49:06;;;;;;;6.05;1.25;;;10.10;81.10;;;;;;4960896;28;20065;-92
2021/12/10 05:51:32;;;;;;;5.88;1.30;;;10.10;81.00;;;;;;4963390;28;20069;-94
2021/12/10 05:53:58;;;;;;;11.30;1.80;;;10.10;80.90;;;;;;4953672;28;20035;-93
2021/12/10 05:56:24;;;;;;;13.65;4.85;;;10.10;80.90;;;;;;4963351;28;20453;-94
2021/12/10 05:58:50;;;;;;;13.70;4.57;;;10.10;80.80;;;;;;4966265;28;20396;-93
2021/12/10 06:01:19;;;;;;;5.05;1.50;;;10.10;80.70;;;;;;4971802;28;20113;-94
2021/12/10 06:03:52;;;;;;;8.45;1.55;;;10.50;80.80;;;;;;4975790;28;20420;-94
2021/12/10 06:06:20;;;;;;;7.30;1.25;;;10.10;80.40;;;;;;4966893;28;20034;-93
2021/12/10 06:08:46;;;;;;;5.53;1.00;;;10.10;80.30;;;;;;4972560;28;20050;-93
2021/12/10 06:11:12;;;;;;;5.18;0.90;;;10.30;80.40;;;;;;4984834;28;20033;-94
2021/12/10 06:13:38;;;;;;;3.40;0.60;;;10.00;80.20;;;;;;4992321;28;20044;-93
2021/12/10 06:16:05;;;;;;;2.45;0.88;;;10.50;80.50;;;;;;4968366;28;20034;-94
2021/12/10 06:18:31;;;;;;;3.60;0.82;;;10.00;80.30;;;;;;4972509;28;20046;-91
2021/12/10 06:20:57;;;;;;;7.88;2.00;;;10.00;80.30;;;;;;4995740;28;20049;-93
2021/12/10 06:23:23;;;;;;;2.60;0.63;;;10.00;80.20;;;;;;4975326;28;20518;-94
2021/12/10 06:25:49;;;;;;;8.65;2.08;;;10.00;80.30;;;;;;4968533;28;20547;-93
2021/12/10 06:28:16;;;;;;;2.83;1.13;;;10.20;80.30;;;;;;4969931;28;20586;-92
2021/12/10 06:30:46;;;;;;;2.45;0.57;;;10.00;80.20;;;;;;4962206;28;20137;-93
2021/12/10 06:33:15;;;;;;;1.92;0.77;;;10.00;80.10;;;;;;4979286;28;20040;-93
2021/12/10 06:35:43;;;;;;;3.63;0.60;;;10.00;80.10;;;;;;4977180;28;20041;-92
2021/12/10 06:38:10;;;;;;;4.68;1.00;;;10.00;80.10;;;;;;4972586;28;20066;-94
2021/12/10 06:40:38;;;;;;;4.28;0.95;;;10.30;80.40;;;;;;4970555;28;20034;-92
2021/12/10 06:43:04;;;;;;;7.65;1.48;;;10.00;80.20;;;;;;4988315;28;20042;-94
2021/12/10 06:45:33;;;;;;;3.67;0.90;;;9.90;80.10;;;;;;4979229;28;20107;-92
2021/12/10 06:48:01;;;;;;;5.28;1.38;;;9.90;80.10;;;;;;4981155;28;20050;-92
2021/12/10 06:50:31;;;;;;;4.88;0.93;;;10.00;80.20;;;;;;4985156;28;20030;-93
2021/12/10 06:52:58;;;;;;;5.97;1.17;;;10.00;80.10;;;;;;4990347;28;20033;-94
2021/12/10 06:55:27;;;;;;;8.25;1.95;;;10.00;80.10;;;;;;5003385;28;20160;-94
2021/12/10 06:57:53;;;;;;;7.40;1.38;;;10.20;80.00;;;;;;4982986;28;20045;-93
2021/12/10 07:00:41;;;;;;;13.50;1.80;;;10.00;79.90;;;;;;4969757;28;20402;-95
2021/12/10 07:03:12;;;;;;;7.57;2.15;;;10.00;79.80;;;;;;4970149;28;20046;-93
2021/12/10 07:05:38;;;;;;;9.50;1.77;;;10.00;79.70;;;;;;4968661;28;20108;-93
2021/12/10 07:08:05;;;;;;;12.50;2.13;;;10.00;79.70;;;;;;4968199;28;20374;-93
2021/12/10 07:10:31;;;;;;;11.02;2.50;;;10.00;79.50;;;;;;4975968;28;20030;-93
2021/12/10 07:12:57;;;;;;;7.55;1.80;;;9.90;79.40;;;;;;4975748;28;20400;-92
2021/12/10 07:15:23;;;;;;;13.35;1.80;;;9.90;78.90;;;;;;4981637;28;20022;-93
2021/12/10 07:17:51;;;;;;;17.52;2.78;;;9.80;78.30;;;;;;4980500;28;20034;-93
2021/12/10 07:20:22;;;;;;;10.52;2.70;;;9.90;78.20;;;;;;4979745;28;20100;-94
2021/12/10 07:22:48;;;;;;;16.38;4.63;;;9.90;77.90;;;;;;4960938;28;20130;-94
2021/12/10 07:25:14;;;;;;;12.68;1.58;;;9.90;77.50;;;;;;4971574;28;20022;-92
2021/12/10 07:27:40;;;;;;;7.75;1.83;;;9.90;77.50;;;;;;4990966;28;20054;-94
2021/12/10 07:30:10;;;;;;;8.23;1.95;;;10.20;77.50;;;;;;4948802;28;20030;-92
2021/12/10 07:32:36;;;;;;;9.25;2.40;;;9.90;77.00;;;;;;4983325;28;20040;-94
2021/12/10 07:35:06;;;;;;;7.93;1.55;;;9.80;77.00;;;;;;4984872;28;20044;-93
2021/12/10 07:37:32;;;;;;;6.95;1.27;;;9.80;77.00;;;;;;4982020;28;20223;-93
2021/12/10 07:39:58;;;;;;;6.75;1.90;;;9.80;77.10;;;;;;4994401;28;20125;-92
2021/12/10 07:42:24;;;;;;;12.15;2.17;;;9.80;77.10;;;;;;4964394;28;20046;-94
2021/12/10 07:44:50;;;;;;;6.13;1.33;;;9.80;77.10;;;;;;4974641;28;20018;-93
2021/12/10 07:47:16;;;;;;;13.48;1.70;;;9.80;77.00;;;;;;4982703;28;20470;-93
2021/12/10 07:49:43;;;;;;;16.98;3.08;;;10.20;77.00;;;;;;4971746;28;20083;-93
2021/12/10 07:52:17;;;;;;;13.07;3.05;;;9.80;76.60;;;;;;4984466;28;20430;-92
2021/12/10 07:54:46;;;;;;;13.32;3.00;;;9.80;76.30;;;;;;4978812;28;20041;-92
2021/12/10 07:57:13;;;;;;;15.20;4.45;;;9.80;76.30;;;;;;4981739;28;20530;-93
2021/12/10 07:59:39;;;;;;;9.30;2.58;;;9.80;76.20;;;;;;4992932;28;20032;-92
2021/12/10 08:02:05;;;;;;;12.20;2.13;;;9.80;76.20;;;;;;4966873;28;20030;-94
2021/12/10 08:04:31;;;;;;;8.40;2.10;;;9.80;76.20;;;;;;4968078;28;20107;-93
2021/12/10 08:06:57;;;;;;;17.27;2.95;;;9.80;76.20;;;;;;4986912;28;20037;-93
2021/12/10 08:09:23;;;;;;;24.33;4.18;;;9.80;76.00;;;;;;4990545;28;20039;-94
2021/12/10 08:11:49;;;;;;;6.50;1.65;;;9.80;75.90;;;;;;4980410;28;20030;-93
2021/12/10 08:14:14;;;;;;;8.25;1.42;;;9.80;75.90;;;;;;4979289;28;20045;-93
2021/12/10 08:16:40;;;;;;;7.55;1.92;;;9.80;75.80;;;;;;4982093;28;20030;-94
2021/12/10 08:19:08;;;;;;;16.58;2.65;;;9.70;75.50;;;;;;4987246;28;20087;-92
2021/12/10 08:21:34;;;;;;;9.05;3.08;;;10.20;75.80;;;;;;5005061;28;20021;-92
2021/12/10 08:24:00;;;;;;;10.85;2.08;;;10.10;75.80;;;;;;5000422;28;20018;-95
2021/12/10 08:26:26;;;;;;;10.80;2.60;;;9.80;75.70;;;;;;4991799;28;20068;-94
2021/12/10 08:28:53;;;;;;;8.77;1.52;;;9.80;75.60;;;;;;4978189;28;20522;-94
2021/12/10 08:31:19;;;;;;;16.10;2.33;;;9.80;75.60;;;;;;4981372;28;20105;-93
2021/12/10 08:33:48;;;;;;;6.35;1.67;;;9.80;75.40;;;;;;4972673;28;20095;-91
2021/12/10 08:36:18;;;;;;;9.05;1.65;;;9.90;75.30;;;;;;4960578;28;20498;-93
2021/12/10 08:38:44;;;;;;;6.30;1.52;;;9.80;75.10;;;;;;5004893;28;20372;-94
2021/12/10 08:41:34;;;;;;;10.30;2.00;;;9.80;75.10;;;;;;4967060;28;20046;-94
2021/12/10 08:44:01;;;;;;;7.25;1.83;;;9.80;75.00;;;;;;4967265;28;20037;-95
2021/12/10 08:46:28;;;;;;;8.32;1.85;;;9.80;74.80;;;;;;4982811;28;20049;-93
2021/12/10 08:48:58;;;;;;;6.30;1.23;;;9.80;75.00;;;;;;4977630;28;20043;-93
2021/12/10 08:51:33;;;;;;;5.95;1.63;;;9.80;74.80;;;;;;4966183;28;20064;-93
2021/12/10 08:54:00;;;;;;;8.60;1.63;;;9.80;74.60;;;;;;4978760;28;20041;-94
2021/12/10 08:56:27;;;;;;;8.27;2.13;;;9.70;74.50;;;;;;4967336;28;20446;-94
2021/12/10 08:58:53;;;;;;;6.10;1.50;;;9.80;74.60;;;;;;4981694;28;20125;-93
2021/12/10 09:01:23;;;;;;;9.68;1.95;;;9.90;74.60;;;;;;4968184;28;20026;-92
2021/12/10 09:03:52;;;;;;;7.50;1.60;;;9.80;74.40;;;;;;4963456;28;20499;-91
2021/12/10 09:06:23;;;;;;;5.07;1.63;;;9.80;74.50;;;;;;4971011;28;20454;-91
2021/12/10 09:08:50;;;;;;;8.98;2.42;;;9.80;74.50;;;;;;4986202;28;20053;-92
2021/12/10 09:11:16;;;;;;;12.90;1.73;;;10.10;74.60;;;;;;4986871;28;20113;-94
2021/12/10 09:13:44;;;;;;;5.40;1.70;;;9.80;74.40;;;;;;4969860;28;20041;-94
2021/12/10 09:16:22;;;;;;;6.28;1.00;;;9.80;74.20;;;;;;4959628;28;20461;-93
2021/12/10 09:18:51;;;;;;;4.22;1.30;;;9.80;74.00;;;;;;4986309;28;20034;-94
2021/12/10 09:21:17;;;;;;;12.07;1.15;;;9.80;74.00;;;;;;4991977;28;20042;-93
2021/12/10 09:23:43;;;;;;;6.32;1.30;;;10.10;74.10;;;;;;5012075;28;20035;-96
2021/12/10 09:26:13;;;;;;;5.97;1.30;;;9.80;74.00;;;;;;4984538;28;20030;-94
2021/12/10 09:28:42;;;;;;;6.10;1.20;;;10.00;74.00;;;;;;4963937;28;20050;-94
2021/12/10 09:31:08;;;;;;;8.68;1.60;;;9.80;74.00;;;;;;4978130;28;20491;-93
2021/12/10 09:33:35;;;;;;;5.95;1.50;;;9.80;74.00;;;;;;4977128;28;20104;-92
2021/12/10 09:36:01;;;;;;;6.50;1.00;;;9.80;74.00;;;;;;4968723;28;20037;-92
2021/12/10 09:38:28;;;;;;;10.45;1.58;;;9.80;74.10;;;;;;4991854;28;20043;-93
2021/12/10 09:41:02;;;;;;;11.25;2.67;;;9.80;74.00;;;;;;4981657;28;20037;-92
2021/12/10 09:43:30;;;;;;;10.23;2.17;;;10.30;74.10;;;;;;5009566;28;20050;-94
2021/12/10 09:45:56;;;;;;;7.68;1.60;;;9.80;73.80;;;;;;4989900;28;20035;-93
2021/12/10 09:48:24;;;;;;;8.77;1.40;;;9.80;73.90;;;;;;4993171;28;20104;-93
2021/12/10 09:51:22;;;;;;;5.75;1.63;;;10.10;73.90;;;;;;4973630;28;20030;-93
2021/12/10 09:53:51;;;;;;;7.97;1.60;;;10.40;74.00;;;;;;4993236;28;20069;-93
2021/12/10 09:56:18;;;;;;;5.13;1.92;;;10.20;73.90;;;;;;4994172;28;20041;-93
2021/12/10 09:58:44;;;;;;;13.35;3.45;;;10.00;73.80;;;;;;5000424;28;20045;-92
2021/12/10 10:01:33;;;;;;;7.45;1.83;;;10.10;73.80;;;;;;4993978;28;20058;-91
2021/12/10 10:04:01;;;;;;;11.52;1.50;;;9.80;73.60;;;;;;4979804;28;20038;-90
2021/12/10 10:06:39;;;;;;;6.05;1.70;;;9.90;73.80;;;;;;4998780;28;20042;-91
2021/12/10 10:09:07;;;;;;;11.13;3.05;;;9.90;73.80;;;;;;4997073;28;20038;-93
2021/12/10 10:11:34;;;;;;;37.83;12.50;;;9.90;73.90;;;;;;4991671;28;20090;-92
2021/12/10 10:14:03;;;;;;;12.73;2.35;;;10.00;74.00;;;;;;5006682;28;20038;-92
2021/12/10 10:16:33;;;;;;;12.63;2.45;;;9.90;74.10;;;;;;4975908;28;20072;-91
2021/12/10 10:18:59;;;;;;;17.10;3.67;;;10.20;74.20;;;;;;4965766;28;20038;-92
2021/12/10 10:21:32;;;;;;;11.35;2.33;;;9.90;74.10;;;;;;5004016;28;20056;-91
2021/12/10 10:23:59;;;;;;;8.13;1.77;;;10.10;74.10;;;;;;4969027;28;20093;-91
2021/12/10 10:26:33;;;;;;;6.88;2.03;;;9.90;74.00;;;;;;4991917;28;20083;-92
2021/12/10 10:29:09;;;;;;;10.50;2.30;;;9.90;74.00;;;;;;4984805;28;20030;-94
2021/12/10 10:31:40;;;;;;;5.18;1.55;;;10.00;74.10;;;;;;4966293;28;20083;-93
2021/12/10 10:34:07;;;;;;;11.68;2.53;;;10.00;74.10;;;;;;4969208;28;20503;-95
2021/12/10 10:36:35;;;;;;;11.05;2.15;;;10.00;74.10;;;;;;4988467;28;20030;-94
2021/12/10 10:39:15;;;;;;;9.20;1.95;;;10.00;74.00;;;;;;4966457;28;20128;-95
2021/12/10 10:41:45;;;;;;;3.17;1.08;;;10.00;74.00;;;;;;4969747;28;20045;-96
2021/12/10 10:44:12;;;;;;;8.63;2.28;;;10.00;74.00;;;;;;4967621;28;20546;-95
2021/12/10 10:46:38;;;;;;;10.95;1.85;;;10.40;74.10;;;;;;4989135;28;20510;-91
2021/12/10 10:49:06;;;;;;;9.43;1.92;;;10.00;73.90;;;;;;4990556;28;20058;-93
2021/12/10 10:51:40;;;;;;;7.05;1.67;;;10.00;73.80;;;;;;4980733;28;20053;-94
2021/12/10 10:54:10;;;;;;;5.72;1.77;;;10.00;73.70;;;;;;4978637;28;20041;-94
2021/12/10 10:56:46;;;;;;;6.35;1.50;;;10.00;73.80;;;;;;4987123;28;20097;-94
2021/12/10 10:59:19;;;;;;;10.93;2.30;;;10.00;73.90;;;;;;4993139;28;20118;-95
2021/12/10 11:01:58;;;;;;;7.38;1.90;;;10.10;73.90;;;;;;4991723;28;20049;-92
2021/12/10 11:04:52;;;;;;;5.05;1.75;;;10.00;73.90;;;;;;4992114;28;20047;-94
2021/12/10 11:07:25;;;;;;;6.80;1.70;;;10.20;73.90;;;;;;4965326;28;20605;-93
2021/12/10 11:10:02;;;;;;;4.85;1.65;;;10.00;73.70;;;;;;4974291;28;20032;-95
2021/12/10 11:12:39;;;;;;;10.10;1.40;;;10.00;73.70;;;;;;4994942;28;20056;-93
2021/12/10 11:15:15;;;;;;;8.45;1.60;;;10.00;73.80;;;;;;4985456;28;20511;-94
2021/12/10 11:17:46;;;;;;;6.10;1.90;;;10.50;74.30;;;;;;4970544;28;20118;-95
2021/12/10 11:20:25;;;;;;;3.75;1.70;;;10.00;74.00;;;;;;4975995;28;20147;-95
2021/12/10 11:22:58;;;;;;;14.55;3.85;;;10.00;74.10;;;;;;4991175;28;20518;-95
2021/12/10 11:25:30;;;;;;;11.27;3.10;;;10.00;74.10;;;;;;4979701;28;20025;-93
2021/12/10 11:28:08;;;;;;;27.33;8.60;;;10.00;74.10;;;;;;5001585;28;20052;-94
2021/12/10 11:30:34;;;;;;;17.05;6.90;;;10.10;74.10;;;;;;4979042;28;20025;-91
2021/12/10 11:33:13;;;;;;;10.75;3.85;;;10.40;74.20;;;;;;4991023;28;20030;-92
2021/12/10 11:35:45;;;;;;;10.18;2.55;;;10.10;74.00;;;;;;4994375;28;20350;-92
2021/12/10 11:38:28;;;;;;;9.25;2.35;;;10.00;73.80;;;;;;4989300;28;20033;-94
2021/12/10 11:41:01;;;;;;;12.18;2.22;;;10.40;74.00;;;;;;4995258;28;20451;-93
2021/12/10 11:44:07;;;;;;;10.88;2.78;;;10.00;73.80;;;;;;4995017;28;20038;-94
2021/12/10 11:46:45;;;;;;;7.03;1.27;;;10.10;73.80;;;;;;4993652;28;20034;-94
2021/12/10 11:49:27;;;;;;;16.40;7.43;;;10.10;73.80;;;;;;4991999;28;20050;-94
2021/12/10 11:52:08;;;;;;;13.45;4.90;;;10.10;73.90;;;;;;4995621;28;20466;-93
2021/12/10 11:55:12;;;;;;;17.02;4.53;;;10.10;74.00;;;;;;4994856;28;20038;-94
2021/12/10 11:57:42;;;;;;;7.20;2.00;;;10.10;74.10;;;;;;4994080;28;20034;-92
2021/12/10 12:00:19;;;;;;;5.75;1.20;;;10.10;74.10;;;;;;4973859;28;20132;-95
2021/12/10 12:02:52;;;;;;;7.20;2.03;;;10.10;74.10;;;;;;4988402;28;20506;-93
2021/12/10 12:05:30;;;;;;;18.58;4.38;;;10.10;74.10;;;;;;4971104;28;20065;-93
2021/12/10 12:08:00;;;;;;;9.07;2.33;;;10.10;73.90;;;;;;4971390;28;20058;-94
2021/12/10 12:10:50;;;;;;;13.18;1.58;;;10.10;73.80;;;;;;4988730;28;20113;-94
2021/12/10 12:13:29;;;;;;;9.43;2.03;;;10.10;73.60;;;;;;4983239;28;20029;-95
2021/12/10 12:16:16;;;;;;;9.93;1.90;;;10.30;73.80;;;;;;4997698;28;20394;-94
2021/12/10 12:18:55;;;;;;;11.32;2.15;;;10.10;73.60;;;;;;4989798;28;20038;-94
2021/12/10 12:26:52;;;;;;;8.75;3.38;;;10.10;73.50;;;;;;4990513;28;20069;-95
2021/12/10 12:29:18;;;;;;;8.05;3.00;;;10.10;73.60;;;;;;4974173;28;20316;-93
2021/12/10 12:31:50;;;;;;;14.88;3.15;;;10.20;73.70;;;;;;4965541;28;20046;-95
2021/12/10 12:34:26;;;;;;;6.95;2.20;;;10.20;73.60;;;;;;4947488;28;20042;-96
2021/12/10 12:37:06;;;;;;;11.27;4.38;;;10.20;73.60;;;;;;4959651;28;20038;-93
2021/12/10 12:39:36;;;;;;;10.68;3.97;;;10.20;74.00;;;;;;4965101;28;20455;-96
2021/12/10 12:42:17;;;;;;;18.20;7.88;;;10.20;73.50;;;;;;4976542;28;20113;-91
2021/12/10 12:44:44;;;;;;;11.70;4.15;;;10.20;73.50;;;;;;4957336;28;20043;-91
2021/12/10 12:47:16;;;;;;;20.90;7.93;;;10.20;73.50;;;;;;4965918;28;20027;-93
2021/12/10 12:49:47;;;;;;;4.50;1.88;;;10.40;73.20;;;;;;4946118;28;20035;-93
2021/12/10 12:53:13;;;;;;;10.60;1.75;;;10.20;73.00;;;;;;4980294;28;20030;-94
2021/12/10 12:55:51;;;;;;;13.15;4.32;;;10.20;72.70;;;;;;4939967;28;20034;-90
2021/12/10 12:58:32;;;;;;;2.28;1.23;;;10.20;72.40;;;;;;4975694;28;20128;-92
2021/12/10 13:01:09;;;;;;;5.07;1.30;;;10.20;72.30;;;;;;4962818;28;20030;-92
2021/12/10 13:03:54;;;;;;;8.05;2.20;;;10.20;72.10;;;;;;4980309;28;20042;-94
2021/12/10 13:06:22;;;;;;;15.52;5.35;;;10.20;71.70;;;;;;4963645;28;20030;-94
2021/12/10 13:09:03;;;;;;;15.98;4.28;;;10.20;71.70;;;;;;4977360;28;20496;-94
2021/12/10 13:11:50;;;;;;;8.93;1.92;;;10.20;71.50;;;;;;4979768;28;20412;-95
2021/12/10 13:14:20;;;;;;;7.45;1.70;;;10.20;71.30;;;;;;4974967;28;20436;-93
2021/12/10 13:16:52;;;;;;;34.67;12.02;;;10.20;71.30;;;;;;4951704;28;20030;-94
2021/12/10 13:19:26;;;;;;;8.30;1.73;;;10.20;71.40;;;;;;4962724;28;20042;-95
2021/12/10 13:22:01;;;;;;;22.83;7.45;;;10.60;71.60;;;;;;4957993;28;20030;-90